Time;durP1;ratioP1;P1;durP2;ratioP2;P2;SDS_P1;SDS_P2;PMS_P1;PMS_P2;Temp;Humidity;BMP_temperature;BMP_pressure;BME280_temperature;BME280_humidity;BME280_pressure;Samples;Min_cycle;Max_cycle;Signal;HPM_P1;HPM_P2
2022/10/26 00:01:18;;;;;;;;;;;9.60;99.90;;;;;;2603228;54;20760;31
2022/10/26 00:03:56;;;;;;;;;;;9.60;99.90;;;;;;2622183;47;19946;31
2022/10/26 00:06:32;;;;;;;;;;;9.60;99.90;;;;;;2621976;46;20811;31
2022/10/26 00:09:07;;;;;;;;;;;9.50;99.90;;;;;;2622613;46;20697;31
2022/10/26 00:11:41;;;;;;;;;;;9.50;99.90;;;;;;2603975;54;20792;31
2022/10/26 00:16:50;;;;;;;;;;;9.40;99.90;;;;;;2622467;46;19941;31
2022/10/26 00:19:28;;;;;;;;;;;9.40;99.90;;;;;;2603860;54;19941;31
2022/10/26 00:22:02;;;;;;;;;;;9.30;99.90;;;;;;2604114;54;20700;31
2022/10/26 00:24:38;;;;;;;;;;;9.30;99.90;;;;;;2622031;46;19965;31
2022/10/26 00:27:12;;;;;;;;;;;9.70;99.90;;;;;;2603985;54;19943;31
2022/10/26 00:29:49;;;;;;;;;;;9.20;99.90;;;;;;2622472;46;20827;31
2022/10/26 00:32:23;;;;;;;;;;;9.10;99.90;;;;;;2604291;46;19934;31
2022/10/26 00:35:01;;;;;;;;;;;9.10;99.90;;;;;;2603140;54;19935;31
2022/10/26 00:37:57;;;;;;;;;;;9.00;99.90;;;;;;2612021;46;19942;31
2022/10/26 00:40:30;;;;;;;;;;;9.10;99.90;;;;;;2622321;46;20775;31
2022/10/26 00:43:05;;;;;;;;;;;9.00;99.90;;;;;;2603733;54;20690;31
2022/10/26 00:45:40;;;;;;;;;;;9.00;99.90;;;;;;2604052;54;19943;31
2022/10/26 00:48:16;;;;;;;;;;;8.90;99.90;;;;;;2603803;54;19938;31
2022/10/26 00:50:54;;;;;;;;;;;8.90;99.90;;;;;;2603870;54;19935;31
2022/10/26 00:53:29;;;;;;;;;;;8.90;99.90;;;;;;2603916;54;20786;31
2022/10/26 00:56:05;;;;;;;;;;;8.90;99.90;;;;;;2618693;46;20132;31
2022/10/26 00:58:39;;;;;;;;;;;8.80;99.90;;;;;;2621335;46;20058;31
2022/10/26 01:01:16;;;;;;;;;;;8.80;99.90;;;;;;2603664;54;20023;31
2022/10/26 01:03:54;;;;;;;;;;;8.70;99.90;;;;;;2604001;54;20765;31
2022/10/26 01:06:32;;;;;;;;;;;8.70;99.90;;;;;;2622515;46;19938;31
2022/10/26 01:09:06;;;;;;;;;;;8.70;99.90;;;;;;2615156;46;20818;31
2022/10/26 01:11:41;;;;;;;;;;;8.70;99.90;;;;;;2622251;46;19942;31
2022/10/26 01:14:16;;;;;;;;;;;8.70;99.90;;;;;;2604044;54;19934;31
2022/10/26 01:16:53;;;;;;;;;;;8.60;99.90;;;;;;2603537;54;19934;31
2022/10/26 01:19:34;;;;;;;;;;;8.60;99.90;;;;;;2603091;54;20748;31
2022/10/26 01:22:13;;;;;;;;;;;8.60;99.90;;;;;;2603918;54;19942;31
2022/10/26 01:25:02;;;;;;;;;;;8.60;99.90;;;;;;2622213;46;20738;31
2022/10/26 01:27:37;;;;;;;;;;;8.50;99.90;;;;;;2603510;54;20782;31
2022/10/26 01:30:27;;;;;;;;;;;8.50;99.90;;;;;;2622213;46;19941;31
2022/10/26 01:33:12;;;;;;;;;;;9.20;99.90;;;;;;2622522;46;19960;31
2022/10/26 01:35:51;;;;;;;;;;;8.40;99.90;;;;;;2622253;46;19980;31
2022/10/26 01:38:28;;;;;;;;;;;8.40;99.90;;;;;;2622385;46;19942;31
2022/10/26 01:41:02;;;;;;;;;;;8.40;99.90;;;;;;2622278;46;19980;31
2022/10/26 01:43:38;;;;;;;;;;;8.40;99.90;;;;;;2609273;46;19977;31
2022/10/26 01:46:17;;;;;;;;;;;8.40;99.90;;;;;;2622161;46;20006;31
2022/10/26 01:48:52;;;;;;;;;;;9.20;99.90;;;;;;2603444;54;20758;31
2022/10/26 01:51:27;;;;;;;;;;;8.40;99.90;;;;;;2603783;54;20744;31
2022/10/26 01:54:02;;;;;;;;;;;8.40;99.90;;;;;;2603745;54;19946;31
2022/10/26 01:56:37;;;;;;;;;;;8.40;99.90;;;;;;2622052;46;20851;31
2022/10/26 01:59:25;;;;;;;;;;;8.30;99.90;;;;;;2603782;54;20754;31
2022/10/26 02:02:16;;;;;;;;;;;8.30;99.90;;;;;;2621776;46;20020;31
2022/10/26 02:07:27;;;;;;;;;;;8.30;99.90;;;;;;2603558;54;20710;31
2022/10/26 02:10:02;;;;;;;;;;;8.20;99.90;;;;;;2622041;46;19941;31
2022/10/26 02:12:39;;;;;;;;;;;8.70;99.90;;;;;;2622143;46;19962;31
2022/10/26 02:15:14;;;;;;;;;;;8.20;99.90;;;;;;2602705;54;19934;31
2022/10/26 02:17:51;;;;;;;;;;;8.20;99.90;;;;;;2621682;46;20796;31
2022/10/26 02:20:27;;;;;;;;;;;8.20;99.90;;;;;;2603738;54;20720;31
2022/10/26 02:23:04;;;;;;;;;;;8.10;99.90;;;;;;2603371;54;19935;31
2022/10/26 02:25:42;;;;;;;;;;;8.90;99.90;;;;;;2621672;46;20029;31
2022/10/26 02:28:17;;;;;;;;;;;8.10;99.90;;;;;;2603260;54;20736;31
2022/10/26 02:30:53;;;;;;;;;;;8.10;99.90;;;;;;2622077;46;20061;31
2022/10/26 02:33:27;;;;;;;;;;;8.00;99.90;;;;;;2603174;54;19934;31
2022/10/26 02:36:02;;;;;;;;;;;8.00;99.90;;;;;;2622184;46;20710;31
2022/10/26 02:38:39;;;;;;;;;;;8.00;99.90;;;;;;2621863;46;19990;31
2022/10/26 02:41:14;;;;;;;;;;;8.00;99.90;;;;;;2622133;46;20719;31
2022/10/26 02:43:49;;;;;;;;;;;7.90;99.90;;;;;;2621882;46;19941;31
2022/10/26 02:46:26;;;;;;;;;;;7.90;99.90;;;;;;2621756;46;20021;31
2022/10/26 02:49:00;;;;;;;;;;;8.70;99.90;;;;;;2603706;54;19934;31
2022/10/26 02:51:37;;;;;;;;;;;7.80;99.90;;;;;;2605046;46;19935;31
2022/10/26 02:54:18;;;;;;;;;;;7.80;99.90;;;;;;2603627;54;20764;31
2022/10/26 02:56:54;;;;;;;;;;;7.80;99.90;;;;;;2603597;54;19941;31
2022/10/26 02:59:29;;;;;;;;;;;7.70;99.90;;;;;;2603622;54;19961;31
2022/10/26 03:02:01;;;;;;;;;;;7.70;99.90;;;;;;2621858;46;19935;31
2022/10/26 03:04:35;;;;;;;;;;;7.80;99.90;;;;;;2621600;46;19961;31
2022/10/26 03:07:12;;;;;;;;;;;7.60;99.90;;;;;;2603715;54;19934;31
2022/10/26 03:09:49;;;;;;;;;;;7.70;99.90;;;;;;2603556;54;19963;31
2022/10/26 03:12:26;;;;;;;;;;;7.60;99.90;;;;;;2603448;54;20807;31
2022/10/26 03:15:01;;;;;;;;;;;7.60;99.90;;;;;;2622214;46;19935;31
2022/10/26 03:17:36;;;;;;;;;;;7.50;99.90;;;;;;2621858;46;19935;31
2022/10/26 03:20:12;;;;;;;;;;;7.50;99.90;;;;;;2603293;54;19941;31
2022/10/26 03:22:49;;;;;;;;;;;7.40;99.90;;;;;;2621997;46;19934;31
2022/10/26 03:25:33;;;;;;;;;;;7.40;99.90;;;;;;2603197;54;19947;31
2022/10/26 03:28:07;;;;;;;;;;;7.40;99.90;;;;;;2621640;46;19941;31
2022/10/26 03:30:40;;;;;;;;;;;7.70;99.90;;;;;;2603352;54;20711;31
2022/10/26 03:33:14;;;;;;;;;;;7.40;99.90;;;;;;2603453;54;19941;31
2022/10/26 03:35:49;;;;;;;;;;;7.40;99.90;;;;;;2603290;54;19957;31
2022/10/26 03:38:23;;;;;;;;;;;7.30;99.90;;;;;;2621522;46;19934;31
2022/10/26 03:41:00;;;;;;;;;;;7.30;99.90;;;;;;2603204;54;20745;31
2022/10/26 03:43:35;;;;;;;;;;;7.30;99.90;;;;;;2603174;54;20793;31
2022/10/26 03:46:14;;;;;;;;;;;7.20;99.90;;;;;;2621830;47;19977;31
2022/10/26 03:48:49;;;;;;;;;;;7.20;99.90;;;;;;2621753;47;20811;31
2022/10/26 03:51:24;;;;;;;;;;;7.20;99.90;;;;;;2603294;54;19990;31
2022/10/26 03:53:59;;;;;;;;;;;7.20;99.90;;;;;;2603410;54;19961;31
2022/10/26 03:56:36;;;;;;;;;;;7.20;99.90;;;;;;2621906;47;19941;31
2022/10/26 03:59:10;;;;;;;;;;;7.20;99.90;;;;;;2603139;54;20759;31
2022/10/26 04:01:45;;;;;;;;;;;7.20;99.90;;;;;;2603142;54;19941;31
2022/10/26 04:04:21;;;;;;;;;;;7.10;99.90;;;;;;2603377;54;20799;31
2022/10/26 04:06:56;;;;;;;;;;;7.10;99.90;;;;;;2701416;39;21393;31
2022/10/26 04:09:30;;;;;;;;;;;7.10;99.90;;;;;;2603405;54;19935;31
2022/10/26 04:12:06;;;;;;;;;;;7.20;99.90;;;;;;2603195;54;19961;31
2022/10/26 04:14:43;;;;;;;;;;;7.10;99.90;;;;;;2602811;54;19941;31
2022/10/26 04:17:17;;;;;;;;;;;7.10;99.90;;;;;;2604330;47;20767;31
2022/10/26 04:19:55;;;;;;;;;;;7.00;99.90;;;;;;2603156;54;19958;31
2022/10/26 04:22:29;;;;;;;;;;;7.00;99.90;;;;;;2603120;54;20001;31
2022/10/26 04:25:03;;;;;;;;;;;7.00;99.90;;;;;;2621420;47;19950;31
2022/10/26 04:27:38;;;;;;;;;;;7.00;99.90;;;;;;2603217;54;19941;31
2022/10/26 04:30:17;;;;;;;;;;;7.00;99.90;;;;;;2621094;47;20013;31
2022/10/26 04:32:49;;;;;;;;;;;7.00;99.90;;;;;;2621149;47;20936;31
2022/10/26 04:35:24;;;;;;;;;;;7.00;99.90;;;;;;2602698;54;20009;31
2022/10/26 04:38:03;;;;;;;;;;;6.90;99.90;;;;;;2701343;39;21424;31
2022/10/26 04:40:38;;;;;;;;;;;6.90;99.90;;;;;;2603851;47;19935;31
2022/10/26 04:43:12;;;;;;;;;;;6.90;99.90;;;;;;2603058;54;20835;31
2022/10/26 04:45:52;;;;;;;;;;;6.90;99.90;;;;;;2602806;54;20047;31
2022/10/26 04:48:28;;;;;;;;;;;6.80;99.90;;;;;;2602702;54;20827;31
2022/10/26 04:51:03;;;;;;;;;;;6.80;99.90;;;;;;2621828;47;19989;31
2022/10/26 04:53:38;;;;;;;;;;;6.80;99.90;;;;;;2603610;54;19934;31
2022/10/26 04:56:12;;;;;;;;;;;6.80;99.90;;;;;;2622395;46;19950;31
2022/10/26 04:58:46;;;;;;;;;;;6.70;99.90;;;;;;2603769;54;19934;31
2022/10/26 05:01:24;;;;;;;;;;;6.70;99.90;;;;;;2620264;46;19962;31
2022/10/26 05:03:58;;;;;;;;;;;6.70;99.90;;;;;;2603136;54;19934;31
2022/10/26 05:06:31;;;;;;;;;;;6.70;99.90;;;;;;2702514;39;22175;31
2022/10/26 05:09:06;;;;;;;;;;;6.70;99.90;;;;;;2603843;54;19960;31
2022/10/26 05:11:40;;;;;;;;;;;6.70;99.90;;;;;;2603893;54;20782;31
2022/10/26 05:14:16;;;;;;;;;;;6.60;99.90;;;;;;2604035;54;19941;31
2022/10/26 05:16:54;;;;;;;;;;;6.60;99.90;;;;;;2603857;54;20775;31
2022/10/26 05:19:28;;;;;;;;;;;6.60;99.90;;;;;;2603819;54;20717;31
2022/10/26 05:22:04;;;;;;;;;;;6.60;99.90;;;;;;2622257;46;20764;31
2022/10/26 05:24:39;;;;;;;;;;;6.60;99.90;;;;;;2603602;54;19934;31
2022/10/26 05:27:13;;;;;;;;;;;6.70;99.90;;;;;;2603644;54;20795;31
2022/10/26 05:29:47;;;;;;;;;;;6.60;99.90;;;;;;2622297;46;19942;31
2022/10/26 05:32:25;;;;;;;;;;;6.60;99.90;;;;;;2603659;54;19946;31
2022/10/26 05:35:02;;;;;;;;;;;6.60;99.90;;;;;;2622224;46;19934;31
2022/10/26 05:37:36;;;;;;;;;;;6.60;99.90;;;;;;2622299;46;20730;31
2022/10/26 05:40:11;;;;;;;;;;;6.60;99.90;;;;;;2603460;54;19940;31
2022/10/26 05:42:45;;;;;;;;;;;6.70;99.90;;;;;;2622015;46;19941;31
2022/10/26 05:45:22;;;;;;;;;;;6.70;99.90;;;;;;2603740;54;19934;31
2022/10/26 05:47:59;;;;;;;;;;;7.60;99.90;;;;;;2621980;46;19980;31
2022/10/26 05:50:37;;;;;;;;;;;6.70;99.90;;;;;;2622115;46;20775;31
2022/10/26 05:53:12;;;;;;;;;;;6.70;99.90;;;;;;2603420;54;19993;31
2022/10/26 05:55:47;;;;;;;;;;;6.70;99.90;;;;;;2603157;54;19942;31
2022/10/26 05:58:22;;;;;;;;;;;6.70;99.90;;;;;;2602880;54;19945;31
2022/10/26 06:01:02;;;;;;;;;;;6.70;99.90;;;;;;2602824;54;19939;31
2022/10/26 06:03:44;;;;;;;;;;;6.80;99.90;;;;;;2622338;46;20735;31
2022/10/26 06:06:20;;;;;;;;;;;6.80;99.90;;;;;;2603389;54;20842;31
2022/10/26 06:08:56;;;;;;;;;;;6.80;99.90;;;;;;2603784;54;19934;31
2022/10/26 06:11:42;;;;;;;;;;;6.90;99.90;;;;;;2603549;54;20793;31
2022/10/26 06:14:19;;;;;;;;;;;6.90;99.90;;;;;;2603771;54;20770;31
2022/10/26 06:17:25;;;;;;;;;;;7.00;99.90;;;;;;2622265;46;20741;31
2022/10/26 06:19:58;;;;;;;;;;;7.00;99.90;;;;;;2603257;54;20856;31
2022/10/26 06:22:47;;;;;;;;;;;7.10;99.90;;;;;;2602725;54;19998;31
2022/10/26 06:25:36;;;;;;;;;;;7.10;99.90;;;;;;2621777;46;19942;31
2022/10/26 06:28:13;;;;;;;;;;;7.10;99.90;;;;;;2603121;54;20748;31
2022/10/26 06:30:48;;;;;;;;;;;7.20;99.90;;;;;;2622082;46;19942;31
2022/10/26 06:33:23;;;;;;;;;;;7.20;99.90;;;;;;2621830;46;19935;31
2022/10/26 06:36:06;;;;;;;;;;;7.30;99.90;;;;;;2603532;54;20000;31
2022/10/26 06:38:43;;;;;;;;;;;7.80;99.90;;;;;;2603585;54;20690;31
2022/10/26 06:41:18;;;;;;;;;;;8.20;99.90;;;;;;2622036;46;19934;31
2022/10/26 06:43:58;;;;;;;;;;;8.60;99.90;;;;;;2621857;46;19935;31
2022/10/26 06:46:34;;;;;;;;;;;9.00;99.90;;;;;;2603457;54;19941;31
2022/10/26 06:49:11;;;;;;;;;;;9.70;99.90;;;;;;2622028;46;19955;31
2022/10/26 06:51:45;;;;;;;;;;;10.20;99.90;;;;;;2603307;54;19935;31
2022/10/26 06:54:20;;;;;;;;;;;10.80;99.90;;;;;;2603698;54;19989;31
2022/10/26 06:56:54;;;;;;;;;;;11.30;99.90;;;;;;2602837;54;20732;31
2022/10/26 06:59:41;;;;;;;;;;;11.80;99.90;;;;;;2622020;46;19957;31
2022/10/26 07:02:14;;;;;;;;;;;12.20;99.90;;;;;;2603678;54;19934;31
2022/10/26 07:04:48;;;;;;;;;;;12.60;99.90;;;;;;2603367;54;20776;31
2022/10/26 07:07:22;;;;;;;;;;;13.00;99.90;;;;;;2603303;54;19943;31
2022/10/26 07:10:00;;;;;;;;;;;13.50;99.90;;;;;;2602583;54;19946;31
2022/10/26 07:12:36;;;;;;;;;;;13.90;99.90;;;;;;2622127;46;19942;31
2022/10/26 07:15:14;;;;;;;;;;;14.20;99.90;;;;;;2621895;47;20826;31
2022/10/26 07:17:48;;;;;;;;;;;14.30;99.90;;;;;;2603274;54;20837;31
2022/10/26 07:20:23;;;;;;;;;;;14.50;99.90;;;;;;2603196;54;19939;31
2022/10/26 07:22:58;;;;;;;;;;;14.60;99.90;;;;;;2621725;46;19950;31
2022/10/26 07:25:32;;;;;;;;;;;14.80;99.90;;;;;;2603243;54;19935;31
2022/10/26 07:28:08;;;;;;;;;;;14.90;99.90;;;;;;2621189;46;19934;31
2022/10/26 07:30:47;;;;;;;;;;;15.20;99.90;;;;;;2621860;46;19942;31
2022/10/26 07:33:28;;;;;;;;;;;15.30;99.90;;;;;;2621990;46;19941;31
2022/10/26 07:36:03;;;;;;;;;;;15.60;99.90;;;;;;2621888;46;19942;31
2022/10/26 07:38:37;;;;;;;;;;;15.70;99.90;;;;;;2603409;54;19941;31
2022/10/26 07:41:13;;;;;;;;;;;16.00;99.90;;;;;;2603321;54;20766;31
2022/10/26 07:43:49;;;;;;;;;;;16.20;99.90;;;;;;2621865;47;19942;31
2022/10/26 07:46:26;;;;;;;;;;;16.20;99.90;;;;;;2617695;47;19935;31
2022/10/26 07:49:01;;;;;;;;;;;16.40;99.90;;;;;;2621744;47;19946;31
2022/10/26 07:51:36;;;;;;;;;;;16.70;99.90;;;;;;2603296;54;20795;31
2022/10/26 07:54:10;;;;;;;;;;;16.80;99.90;;;;;;2604546;47;19982;31
2022/10/26 07:56:44;;;;;;;;;;;17.00;99.90;;;;;;2603356;54;20748;31
2022/10/26 08:01:55;;;;;;;;;;;17.50;99.90;;;;;;2603208;54;20714;31
2022/10/26 08:04:29;;;;;;;;;;;17.60;99.90;;;;;;2603115;54;20781;31
2022/10/26 08:07:04;;;;;;;;;;;17.80;99.90;;;;;;2603324;54;19934;31
2022/10/26 08:09:40;;;;;;;;;;;18.00;99.90;;;;;;2603213;54;19964;31
2022/10/26 08:12:15;;;;;;;;;;;18.30;99.90;;;;;;2621874;47;19943;31
2022/10/26 08:14:49;;;;;;;;;;;18.40;99.90;;;;;;2603111;54;19942;31
2022/10/26 08:17:26;;;;;;;;;;;18.50;99.90;;;;;;2602500;54;20809;31
2022/10/26 08:20:01;;;;;;;;;;;18.70;99.90;;;;;;2603112;54;20798;31
2022/10/26 08:22:35;;;;;;;;;;;18.90;99.90;;;;;;2602871;54;19946;31
2022/10/26 08:25:10;;;;;;;;;;;19.10;99.90;;;;;;2603462;54;19989;31
2022/10/26 08:27:47;;;;;;;;;;;19.40;99.90;;;;;;2603661;54;19957;31
2022/10/26 08:30:24;;;;;;;;;;;19.40;99.90;;;;;;2604152;54;19935;31
2022/10/26 08:33:05;;;;;;;;;;;19.50;99.90;;;;;;2603935;54;20812;31
2022/10/26 08:38:10;;;;;;;;;;;19.60;99.90;;;;;;2603845;54;19936;31
2022/10/26 08:40:45;;;;;;;;;;;19.80;99.90;;;;;;2603937;54;19946;31
2022/10/26 08:43:19;;;;;;;;;;;19.90;99.90;;;;;;2604033;54;20755;31
2022/10/26 08:45:52;;;;;;;;;;;19.90;99.90;;;;;;2618165;46;20801;31
2022/10/26 08:48:31;;;;;;;;;;;19.90;99.90;;;;;;2622153;46;20717;31
2022/10/26 08:51:08;;;;;;;;;;;20.00;99.90;;;;;;2604181;54;20714;31
2022/10/26 08:53:43;;;;;;;;;;;20.00;99.90;;;;;;2603841;54;20801;31
2022/10/26 08:56:20;;;;;;;;;;;20.10;99.90;;;;;;2603336;54;19946;31
2022/10/26 08:58:54;;;;;;;;;;;20.20;99.90;;;;;;2702669;39;20915;31
2022/10/26 09:01:29;;;;;;;;;;;20.30;99.90;;;;;;2604041;54;20761;31
2022/10/26 09:04:06;;;;;;;;;;;20.40;99.90;;;;;;2604058;54;19935;31
2022/10/26 09:06:45;;;;;;;;;;;20.40;99.90;;;;;;2604096;54;19942;31
2022/10/26 09:09:19;;;;;;;;;;;20.40;99.90;;;;;;2604984;46;19939;31
2022/10/26 09:11:56;;;;;;;;;;;20.50;99.90;;;;;;2603823;54;19940;31
2022/10/26 09:14:34;;;;;;;;;;;20.70;99.90;;;;;;2604223;54;20754;31
2022/10/26 09:17:10;;;;;;;;;;;20.70;99.90;;;;;;2622573;46;19941;31
2022/10/26 09:19:53;;;;;;;;;;;20.70;99.90;;;;;;2613819;46;19942;31
2022/10/26 09:22:28;;;;;;;;;;;20.70;99.90;;;;;;2603809;54;20013;31
2022/10/26 09:25:03;;;;;;;;;;;20.60;99.90;;;;;;2603763;54;19941;31
2022/10/26 09:27:43;;;;;;;;;;;20.60;99.90;;;;;;2603956;54;19941;31
2022/10/26 09:30:19;;;;;;;;;;;20.70;99.90;;;;;;2622161;46;19934;31
2022/10/26 09:32:53;;;;;;;;;;;20.70;99.90;;;;;;2603844;54;20752;31
2022/10/26 09:35:31;;;;;;;;;;;20.80;99.90;;;;;;2603899;54;20850;31
2022/10/26 09:38:05;;;;;;;;;;;20.90;99.90;;;;;;2603675;54;19989;31
2022/10/26 09:40:40;;;;;;;;;;;20.80;99.90;;;;;;2604695;46;20005;31
2022/10/26 09:43:13;;;;;;;;;;;20.90;99.90;;;;;;2603668;54;20763;31
2022/10/26 09:45:48;;;;;;;;;;;20.90;99.90;;;;;;2604927;46;19946;31
2022/10/26 09:48:23;;;;;;;;;;;21.00;99.90;;;;;;2603747;54;20799;31
2022/10/26 09:51:01;;;;;;;;;;;21.00;99.90;;;;;;2603632;54;19941;31
2022/10/26 09:53:37;;;;;;;;;;;21.00;99.90;;;;;;2603715;54;19938;31
2022/10/26 09:56:12;;;;;;;;;;;21.00;99.90;;;;;;2603760;46;19934;31
2022/10/26 09:58:46;;;;;;;;;;;21.20;99.90;;;;;;2603423;54;19993;31
2022/10/26 10:01:24;;;;;;;;;;;21.20;99.90;;;;;;2603698;54;20021;31
2022/10/26 10:04:13;;;;;;;;;;;21.10;99.90;;;;;;2603693;54;20767;31
2022/10/26 10:06:50;;;;;;;;;;;21.10;99.90;;;;;;2603321;54;20780;31
2022/10/26 10:09:24;;;;;;;;;;;20.90;99.90;;;;;;2603424;54;19990;31
2022/10/26 10:11:59;;;;;;;;;;;20.90;99.90;;;;;;2622429;46;20774;31
2022/10/26 10:14:34;;;;;;;;;;;20.90;99.90;;;;;;2622026;46;19989;31
2022/10/26 10:17:19;;;;;;;;;;;20.80;99.90;;;;;;2602772;54;20001;31
2022/10/26 10:19:56;;;;;;;;;;;20.80;99.90;;;;;;2603627;54;20765;31
2022/10/26 10:22:33;;;;;;;;;;;20.80;99.90;;;;;;2603589;54;20811;31
2022/10/26 10:25:13;;;;;;;;;;;20.70;99.90;;;;;;2603540;54;20701;31
2022/10/26 10:27:47;;;;;;;;;;;20.80;99.90;;;;;;2603788;54;20745;31
2022/10/26 10:30:23;;;;;;;;;;;20.60;99.90;;;;;;2603641;54;19941;31
2022/10/26 10:33:07;;;;;;;;;;;20.60;99.90;;;;;;2603570;54;19941;31
2022/10/26 10:35:41;;;;;;;;;;;20.60;99.90;;;;;;2603453;54;19935;31
2022/10/26 10:38:20;;;;;;;;;;;20.50;99.90;;;;;;2603492;54;20737;31
2022/10/26 10:40:57;;;;;;;;;;;20.40;99.90;;;;;;2603635;54;19934;31
2022/10/26 10:43:31;;;;;;;;;;;20.40;99.90;;;;;;2603465;54;20848;31
2022/10/26 10:46:07;;;;;;;;;;;20.20;99.90;;;;;;2603885;54;20762;31
2022/10/26 10:48:41;;;;;;;;;;;20.10;99.90;;;;;;2603414;54;19934;31
2022/10/26 10:51:20;;;;;;;;;;;20.00;99.90;;;;;;2603557;54;19941;31
2022/10/26 10:53:57;;;;;;;;;;;20.00;99.90;;;;;;2602771;54;19950;31
2022/10/26 10:56:34;;;;;;;;;;;20.00;99.90;;;;;;2603538;54;20785;31
2022/10/26 10:59:26;;;;;;;;;;;19.90;99.90;;;;;;2621819;46;19946;31
2022/10/26 11:02:04;;;;;;;;;;;19.80;99.90;;;;;;2603392;54;20781;31
2022/10/26 11:05:05;;;;;;;;;;;19.80;99.90;;;;;;2622106;46;19998;31
2022/10/26 11:07:44;;;;;;;;;;;19.70;99.90;;;;;;2603941;46;19946;31
2022/10/26 11:10:23;;;;;;;;;;;19.70;99.90;;;;;;2603256;54;19942;31
2022/10/26 11:12:57;;;;;;;;;;;19.70;99.90;;;;;;2603826;54;19938;31
2022/10/26 11:15:32;;;;;;;;;;;19.70;99.90;;;;;;2603462;54;20723;31
2022/10/26 11:18:09;;;;;;;;;;;19.60;99.90;;;;;;2603291;54;20810;31
2022/10/26 11:20:44;;;;;;;;;;;19.60;99.90;;;;;;2622099;46;20756;31
2022/10/26 11:23:19;;;;;;;;;;;19.60;99.90;;;;;;2603304;54;20783;31
2022/10/26 11:25:58;;;;;;;;;;;19.50;99.90;;;;;;2603313;54;19993;31
2022/10/26 11:28:36;;;;;;;;;;;19.50;99.90;;;;;;2603323;54;19941;31
2022/10/26 11:31:14;;;;;;;;;;;19.40;99.90;;;;;;2602653;54;20070;31
2022/10/26 11:33:49;;;;;;;;;;;19.40;99.90;;;;;;2621677;46;20737;31
2022/10/26 11:36:24;;;;;;;;;;;19.40;99.90;;;;;;2603289;54;19935;31
2022/10/26 11:39:01;;;;;;;;;;;19.30;99.90;;;;;;2603375;54;19935;31
2022/10/26 11:41:42;;;;;;;;;;;19.30;99.90;;;;;;2603180;54;19934;31
2022/10/26 11:44:17;;;;;;;;;;;19.20;99.90;;;;;;2603254;54;20795;31
2022/10/26 11:46:52;;;;;;;;;;;19.20;99.90;;;;;;2603245;54;20018;31
2022/10/26 11:49:28;;;;;;;;;;;19.10;99.90;;;;;;2603203;54;19941;31
2022/10/26 11:52:04;;;;;;;;;;;19.10;99.90;;;;;;2603187;54;19946;31
2022/10/26 11:54:39;;;;;;;;;;;19.00;99.90;;;;;;2603292;54;20697;31
2022/10/26 11:57:16;;;;;;;;;;;19.00;99.90;;;;;;2621656;47;19934;31
2022/10/26 11:59:51;;;;;;;;;;;19.00;99.90;;;;;;2603629;54;19990;31
2022/10/26 12:02:25;;;;;;;;;;;18.90;99.90;;;;;;2604067;54;19935;31
2022/10/26 12:05:01;;;;;;;;;;;18.90;99.90;;;;;;2614064;46;20718;31
2022/10/26 12:07:36;;;;;;;;;;;18.80;99.90;;;;;;2622533;46;19940;31
2022/10/26 12:10:12;;;;;;;;;;;18.80;99.90;;;;;;2604120;54;19946;31
2022/10/26 12:12:50;;;;;;;;;;;18.80;99.90;;;;;;2604134;54;20699;31
2022/10/26 12:15:28;;;;;;;;;;;18.70;99.90;;;;;;2604026;54;20754;31
2022/10/26 12:18:19;;;;;;;;;;;18.70;99.90;;;;;;2622346;46;19943;31
2022/10/26 12:21:14;;;;;;;;;;;18.60;99.90;;;;;;2622358;46;19935;31
2022/10/26 12:23:55;;;;;;;;;;;18.60;99.90;;;;;;2603321;54;19965;31
2022/10/26 12:26:50;;;;;;;;;;;18.60;99.90;;;;;;2604139;54;19942;31
2022/10/26 12:29:45;;;;;;;;;;;18.50;99.90;;;;;;2603926;54;19939;31
2022/10/26 12:32:34;;;;;;;;;;;18.50;99.90;;;;;;2621515;46;19997;31
2022/10/26 12:35:26;;;;;;;;;;;18.50;99.90;;;;;;2604113;54;20759;31
2022/10/26 12:38:00;;;;;;;;;;;18.50;99.90;;;;;;2604013;54;19934;31
2022/10/26 12:40:44;;;;;;;;;;;18.50;99.90;;;;;;2622480;46;19941;31
2022/10/26 12:43:43;;;;;;;;;;;18.50;99.90;;;;;;2622526;46;19946;31
2022/10/26 12:46:41;;;;;;;;;;;18.40;99.90;;;;;;2604056;54;20760;31
2022/10/26 12:49:43;;;;;;;;;;;18.40;99.90;;;;;;2603753;54;20012;31
2022/10/26 12:52:17;;;;;;;;;;;18.40;99.90;;;;;;2604126;54;19939;31
2022/10/26 12:54:57;;;;;;;;;;;18.40;99.90;;;;;;2622629;46;19998;31
2022/10/26 12:57:35;;;;;;;;;;;18.40;99.90;;;;;;2603964;54;19934;31
2022/10/26 13:00:13;;;;;;;;;;;18.30;99.90;;;;;;2603676;54;20807;31
2022/10/26 13:02:52;;;;;;;;;;;18.30;99.90;;;;;;2622241;46;19934;31
2022/10/26 13:05:24;;;;;;;;;;;18.30;99.90;;;;;;2603847;54;19934;31
2022/10/26 13:08:02;;;;;;;;;;;18.30;99.90;;;;;;2614773;46;19935;31
2022/10/26 13:10:37;;;;;;;;;;;18.30;99.90;;;;;;2622457;46;19977;31
2022/10/26 13:13:23;;;;;;;;;;;18.30;99.90;;;;;;2622500;47;19935;31
2022/10/26 13:16:03;;;;;;;;;;;18.30;99.90;;;;;;2622403;46;19944;31
2022/10/26 13:18:42;;;;;;;;;;;18.30;99.90;;;;;;2603752;54;19942;31
2022/10/26 13:21:16;;;;;;;;;;;18.20;99.90;;;;;;2621893;46;19946;31
2022/10/26 13:24:00;;;;;;;;;;;18.20;99.90;;;;;;2604001;54;19941;31
2022/10/26 13:26:56;;;;;;;;;;;18.20;99.90;;;;;;2622469;46;19935;31
2022/10/26 13:29:34;;;;;;;;;;;18.20;99.90;;;;;;2603909;54;19935;31
2022/10/26 13:32:08;;;;;;;;;;;18.20;99.90;;;;;;2603596;54;20787;31
2022/10/26 13:34:41;;;;;;;;;;;18.20;99.90;;;;;;2603585;54;20779;31
2022/10/26 13:37:19;;;;;;;;;;;18.20;99.90;;;;;;2603977;54;19934;31
2022/10/26 13:39:54;;;;;;;;;;;18.10;99.90;;;;;;2604733;46;20011;31
2022/10/26 13:42:29;;;;;;;;;;;18.20;99.90;;;;;;2603924;54;19934;31
2022/10/26 13:45:08;;;;;;;;;;;18.20;99.90;;;;;;2618030;46;19934;31
2022/10/26 13:47:43;;;;;;;;;;;18.20;99.90;;;;;;2603997;54;19939;31
2022/10/26 13:50:17;;;;;;;;;;;18.20;99.90;;;;;;2603790;54;19946;31
2022/10/26 13:52:52;;;;;;;;;;;18.20;99.90;;;;;;2622263;46;19941;31
2022/10/26 13:55:27;;;;;;;;;;;18.20;99.90;;;;;;2603583;54;19946;31
2022/10/26 13:58:07;;;;;;;;;;;18.20;99.90;;;;;;2604074;54;19957;31
2022/10/26 14:00:44;;;;;;;;;;;18.20;99.90;;;;;;2603412;54;20697;31
2022/10/26 14:03:16;;;;;;;;;;;18.20;99.90;;;;;;2603725;54;19957;31
2022/10/26 14:05:50;;;;;;;;;;;18.20;99.90;;;;;;2622249;46;19942;31
2022/10/26 14:08:24;;;;;;;;;;;18.20;99.90;;;;;;2603569;54;19965;31
2022/10/26 14:10:58;;;;;;;;;;;18.20;99.90;;;;;;2622099;46;19935;31
2022/10/26 14:13:32;;;;;;;;;;;18.20;99.90;;;;;;2622213;46;20808;31
2022/10/26 14:16:11;;;;;;;;;;;18.20;99.90;;;;;;2603705;54;20697;31
2022/10/26 14:18:50;;;;;;;;;;;18.10;99.90;;;;;;2619245;46;19935;31
2022/10/26 14:21:24;;;;;;;;;;;18.10;99.90;;;;;;2613642;46;19934;31
2022/10/26 14:23:59;;;;;;;;;;;18.10;99.90;;;;;;2622372;46;19935;31
2022/10/26 14:26:32;;;;;;;;;;;18.10;99.90;;;;;;2622088;46;20021;31
2022/10/26 14:29:06;;;;;;;;;;;18.10;99.90;;;;;;2604097;46;19934;31
2022/10/26 14:31:43;;;;;;;;;;;18.10;99.90;;;;;;2603489;54;19960;31
2022/10/26 14:34:15;;;;;;;;;;;18.10;99.90;;;;;;2603649;54;19960;31
2022/10/26 14:36:50;;;;;;;;;;;18.10;99.90;;;;;;2603661;54;19942;31
2022/10/26 14:39:26;;;;;;;;;;;18.10;99.90;;;;;;2603721;54;19941;31
2022/10/26 14:42:00;;;;;;;;;;;18.00;99.90;;;;;;2622122;46;19946;31
2022/10/26 14:44:34;;;;;;;;;;;18.00;99.90;;;;;;2622211;46;19934;31
2022/10/26 14:47:17;;;;;;;;;;;18.00;99.90;;;;;;2603436;54;19957;31
2022/10/26 14:49:49;;;;;;;;;;;18.00;99.90;;;;;;2617006;46;19938;31
2022/10/26 14:52:23;;;;;;;;;;;17.90;99.90;;;;;;2622151;46;19960;31
2022/10/26 14:55:02;;;;;;;;;;;17.90;99.90;;;;;;2603169;54;20826;31
2022/10/26 14:57:37;;;;;;;;;;;17.90;99.90;;;;;;2603716;54;19941;31
2022/10/26 15:00:14;;;;;;;;;;;17.80;99.90;;;;;;2603369;54;20763;31
2022/10/26 15:02:51;;;;;;;;;;;17.80;99.90;;;;;;2603747;54;19938;31
2022/10/26 15:05:28;;;;;;;;;;;17.70;99.90;;;;;;2622321;46;19986;31
2022/10/26 15:08:23;;;;;;;;;;;17.70;99.90;;;;;;2613333;46;19950;31
2022/10/26 15:11:15;;;;;;;;;;;17.70;99.90;;;;;;2622061;46;19934;31
2022/10/26 15:13:49;;;;;;;;;;;17.60;99.90;;;;;;2603652;54;20022;31
2022/10/26 15:16:24;;;;;;;;;;;17.50;99.90;;;;;;2604289;46;19941;31
2022/10/26 15:19:00;;;;;;;;;;;17.50;99.90;;;;;;2603636;54;20049;31
2022/10/26 15:21:35;;;;;;;;;;;17.40;99.90;;;;;;2603287;54;20006;31
2022/10/26 15:24:19;;;;;;;;;;;17.30;99.90;;;;;;2621755;46;20775;31
2022/10/26 15:26:51;;;;;;;;;;;17.30;99.90;;;;;;2603566;54;19935;31
2022/10/26 15:29:38;;;;;;;;;;;17.20;99.90;;;;;;2603140;54;19935;31
2022/10/26 15:32:22;;;;;;;;;;;17.20;99.90;;;;;;2622084;46;19934;31
2022/10/26 15:35:23;;;;;;;;;;;17.10;99.90;;;;;;2603063;54;20783;31
2022/10/26 15:38:00;;;;;;;;;;;17.10;99.90;;;;;;2603322;54;19990;31
2022/10/26 15:40:35;;;;;;;;;;;17.00;99.90;;;;;;2603295;54;19934;31
2022/10/26 15:43:11;;;;;;;;;;;16.90;99.90;;;;;;2603094;54;19956;31
2022/10/26 15:45:47;;;;;;;;;;;16.90;99.90;;;;;;2621861;47;19946;31